Flugplatz Burg Feuerstein

Für EDQE sind keine METAR/TAF Berichte vorhanden.
Es werden die Flugwettermeldungen vom Flugplatz Nuremberg in 33 km Entfernung angezeigt.

Bericht für EDDN

vom 23.05. um 18:50 UTC

Wind 1 kt aus 50°

Sichtweite 10 km oder mehr

gute Sicht, keine Wolken < 5000 ft, keine CB, keine Wettererscheinungen (CAVOK)

Temperatur 16.0°C

Taupunkt 8.0°C

Luftfeuchtigkeit 59%

Luftdruck 1017 hPa

keine wesentliche Wetteränderung innerhalb den nächsten 2 Stunden zu erwarten

EDDN 231850Z 05001KT CAVOK 16/08 Q1017 NOSIG

Prognose für EDDN

vom 23.05. um 17:00 UTC

Zwischen 18:00 UTC und 18:00 UTC

variable Windrichtung mit 3 kt

Sichtweite 10 km oder mehr

gering bewölkt in 4500 ft

TAF EDDN 231700Z 2318/2418 VRB03KT 9999 FEW045
Impressum